Fort McNair, District of Columbia
Current Conditions -  °F | °C
As of 6:52 AM on Friday 24 Oct 2014 (Local Time) from KDCA Reporting Station
Scattered Clouds Scattered Clouds  
Wind Chill: 56°   Ceiling: Unl
Heat Index: 56°   Visibility: 10mi
Dew Point: 42°   Wind: 9mph
Humidity: 60%   Direction: 330°NNW
Pressure: 29.96"   Gusts: NA
Location:  38.878°N, 77.0198°W
Report Text: KDCA 241052Z 33008KT 10SM FEW050 SCT250 13/06 A2996 RMK AO2 SLP145 T01330056 $
Loading
Personal Weather Stations






























Interactive Weather Map
Tropical Storm Tracking
New forecast layout! Learn more

10-Day Weather Forecast

Advertisements
Track Severe Weather on mobile